Historique des mesures à Cassis (13260), France
Quotidien Résumé Mars 2, 2018 Unités:  Métrique/US    US   Métrique
« Précédent (Jour)
Suivant (Jour) »
Quotidien Hebdomadaire Mensuel Annuel Période au choix
  Maximum: Minimum: Moyenne:
Température: 32 °F /  TemperatureC °C 43.2 °F /  6.2 °C 48.6 °F /  9.2 °C
Point de rosée: 32 °F /  DewpointC °C 35.6 °F /  2.0 °C 39.6 °F /  4.2 °C
Humidité: Humidity % 55 % 68 %
Vitesse du vent: WindSpeedKMH mph /  0 km/h - 10.7 mph /  17.2 km/h
Rafales: WindSpeedGustKMH mph /  0 km/h - -
Vent:- - SSW
Pression: 0 in /  PressurehPa hPa 29.1 in /  985.0 hPa -
Précipitations: 104.14 in /  4.1 mm    
Historical Graphs
 
 
Mesures pour : Mars 2, 2018
Heure Temperature Point de rosée Pression Vent Vitesse du vent Rafales Humidité Pluie (par heure) Conditions
32 °F /  TemperatureC °C 32 °F /  DewpointC °C 0 in /  PressurehPa hPa Calm     Humidity % 0 in /  HourlyPrecipMM mm SoftwareType W/m2
00:12 48.6 °F /  9.2 °C 41.9 °F /  5.5 °C 29.2 in /  989.7 hPa ESE 12.2 mph /  19.6 km/h 12.6 mph /  20.3 km/h 78 % 0 in /  0.0 mm open2300-1.11 W/m2
01:12 48.9 °F /  9.4 °C 41.4 °F /  5.2 °C 29.2 in /  989.1 hPa ESE 17.2 mph /  27.7 km/h 17.2 mph /  27.7 km/h 75 % 0 in /  0.0 mm open2300-1.11 W/m2
02:12 49.6 °F /  9.8 °C 42.1 °F /  5.6 °C 29.2 in /  987.7 hPa SE 9.7 mph /  15.6 km/h 9.7 mph /  15.6 km/h 75 % 0 in /  0.0 mm open2300-1.11 W/m2
04:12 47.5 °F /  8.6 °C 42.4 °F /  5.8 °C 29.1 in /  986.0 hPa ESE 11.1 mph /  17.9 km/h 11.1 mph /  17.9 km/h 83 % 38.1 in /  1.5 mm open2300-1.11 W/m2
05:12 47.8 °F /  8.8 °C 42.6 °F /  5.9 °C 29.1 in /  985.3 hPa SE 8.7 mph /  14 km/h 14.3 mph /  23 km/h 82 % 12.7 in /  0.5 mm open2300-1.11 W/m2
06:12 48.7 °F /  9.3 °C 43.2 °F /  6.2 °C 29.1 in /  985.0 hPa ESE 18.0 mph /  29 km/h 18.0 mph /  29 km/h 81 % 0 in /  0.0 mm open2300-1.11 W/m2
07:12 48.7 °F /  9.3 °C 43.2 °F /  6.2 °C 29.1 in /  986.0 hPa East 5.5 mph /  8.9 km/h 7.2 mph /  11.6 km/h 81 % 0 in /  0.0 mm open2300-1.11 W/m2
08:12 45.1 °F /  7.3 °C 39.7 °F /  4.3 °C 29.2 in /  989.1 hPa WNW 36.0 mph /  57.9 km/h 66.3 mph /  106.7 km/h 81 % 0 in /  0.0 mm open2300-1.11 W/m2
09:12 43.2 °F /  6.2 °C 38.3 °F /  3.5 °C 29.3 in /  991.1 hPa NNE 16.6 mph /  26.7 km/h 29.4 mph /  47.3 km/h 83 % 25.4 in /  1.0 mm open2300-1.11 W/m2
10:12 45 °F /  7.2 °C 39.6 °F /  4.2 °C 29.3 in /  992.4 hPa NW 11.6 mph /  18.7 km/h 18.7 mph /  30.1 km/h 81 % 12.7 in /  0.5 mm open2300-1.11 W/m2
11:12 48.7 °F /  9.3 °C 41.4 °F /  5.2 °C 29.4 in /  993.8 hPa NW 4.7 mph /  7.6 km/h 16.3 mph /  26.2 km/h 76 % 0 in /  0.0 mm open2300-1.11 W/m2
12:12 51.4 °F /  10.8 °C 42.4 °F /  5.8 °C 29.4 in /  994.1 hPa WSW 15.8 mph /  25.4 km/h 15.8 mph /  25.4 km/h 71 % 0 in /  0.0 mm open2300-1.11 W/m2
13:12 52.5 °F /  11.4 °C 41 °F /  5.0 °C 29.4 in /  994.8 hPa WSW 30.6 mph /  49.2 km/h 30.6 mph /  49.2 km/h 65 % 0 in /  0.0 mm open2300-1.11 W/m2
14:12 54.3 °F /  12.4 °C 39.7 °F /  4.3 °C 29.4 in /  994.8 hPa NW 14.3 mph /  23 km/h 36.4 mph /  58.6 km/h 58 % 0 in /  0.0 mm open2300-1.11 W/m2
15:12 54.7 °F /  12.6 °C 39.7 °F /  4.3 °C 29.4 in /  995.5 hPa WNW 26.2 mph /  42.2 km/h 27.4 mph /  44.1 km/h 57 % 0 in /  0.0 mm open2300-1.11 W/m2
16:12 54.9 °F /  12.7 °C 39.4 °F /  4.1 °C 29.4 in /  995.5 hPa WNW 3.5 mph /  5.6 km/h 18.0 mph /  29 km/h 56 % 0 in /  0.0 mm open2300-1.11 W/m2
17:12 54.3 °F /  12.4 °C 38.5 °F /  3.6 °C 29.4 in /  996.5 hPa WSW 14.3 mph /  23 km/h 14.3 mph /  23 km/h 55 % 0 in /  0.0 mm open2300-1.11 W/m2
18:12 52 °F /  11.1 °C 37.6 °F /  3.1 °C 29.4 in /  996.5 hPa Calm   5.0 mph /  8 km/h 58 % 0 in /  0.0 mm open2300-1.11 W/m2
19:12 49.3 °F /  9.6 °C 37.2 °F /  2.9 °C 29.4 in /  996.8 hPa Calm     63 % 0 in /  0.0 mm open2300-1.11 W/m2
20:12 47.1 °F /  8.4 °C 36.3 °F /  2.4 °C 29.4 in /  996.2 hPa Calm   1.8 mph /  2.9 km/h 66 % 0 in /  0.0 mm open2300-1.11 W/m2
21:12 46.8 °F /  8.2 °C 35.6 °F /  2.0 °C 29.4 in /  995.8 hPa NNW 1.4 mph /  2.3 km/h 1.8 mph /  2.9 km/h 65 % 0 in /  0.0 mm open2300-1.11 W/m2
22:12 46.8 °F /  8.2 °C 36 °F /  2.2 °C 29.4 in /  995.8 hPa Calm   2.1 mph /  3.4 km/h 66 % 0 in /  0.0 mm open2300-1.11 W/m2
23:12 47.5 °F /  8.6 °C 36.7 °F /  2.6 °C 29.4 in /  994.8 hPa Calm     66 % 0 in /  0.0 mm open2300-1.11 W/m2
Observations météo à CASSIS
WU-History script by Weather Underground - 1 mb